地図

経路データ

SID SEASON NUMBER BASIN SUBBASIN NAME ISO_TIME NATURE LAT LON WMO_WIND WMO_PRES WMO_AGENCY TRACK_TYPE DIST2LAND LANDFALL IFLAG USA_AGENCY USA_ATCF_ID USA_LAT USA_LON USA_RECORD USA_STATUS USA_WIND USA_PRES USA_SSHS USA_R34_NE USA_R34_SE USA_R34_SW USA_R34_NW USA_R50_NE USA_R50_SE USA_R50_SW USA_R50_NW USA_R64_NE USA_R64_SE USA_R64_SW USA_R64_NW USA_POCI USA_ROCI USA_RMW USA_EYE TOKYO_LAT TOKYO_LON TOKYO_GRADE TOKYO_WIND TOKYO_PRES TOKYO_R50_DIR TOKYO_R50_LONG TOKYO_R50_SHORT TOKYO_R30_DIR TOKYO_R30_LONG TOKYO_R30_SHORT TOKYO_LAND CMA_LAT CMA_LON CMA_CAT CMA_WIND CMA_PRES HKO_LAT HKO_LON HKO_CAT HKO_WIND HKO_PRES NEWDELHI_LAT NEWDELHI_LON NEWDELHI_GRADE NEWDELHI_WIND NEWDELHI_PRES NEWDELHI_CI NEWDELHI_DP NEWDELHI_POCI REUNION_LAT REUNION_LON REUNION_TYPE REUNION_WIND REUNION_PRES REUNION_TNUM REUNION_CI REUNION_RMW REUNION_R34_NE REUNION_R34_SE REUNION_R34_SW REUNION_R34_NW REUNION_R50_NE REUNION_R50_SE REUNION_R50_SW REUNION_R50_NW REUNION_R64_NE REUNION_R64_SE REUNION_R64_SW REUNION_R64_NW BOM_LAT BOM_LON BOM_TYPE BOM_WIND BOM_PRES BOM_TNUM BOM_CI BOM_RMW BOM_R34_NE BOM_R34_SE BOM_R34_SW BOM_R34_NW BOM_R50_NE BOM_R50_SE BOM_R50_SW BOM_R50_NW BOM_R64_NE BOM_R64_SE BOM_R64_SW BOM_R64_NW BOM_ROCI BOM_POCI BOM_EYE BOM_POS_METHOD BOM_PRES_METHOD NADI_LAT NADI_LON NADI_CAT NADI_WIND NADI_PRES WELLINGTON_LAT WELLINGTON_LON WELLINGTON_WIND WELLINGTON_PRES DS824_LAT DS824_LON DS824_STAGE DS824_WIND DS824_PRES TD9636_LAT TD9636_LON TD9636_STAGE TD9636_WIND TD9636_PRES TD9635_LAT TD9635_LON TD9635_WIND TD9635_PRES TD9635_ROCI NEUMANN_LAT NEUMANN_LON NEUMANN_CLASS NEUMANN_WIND NEUMANN_PRES MLC_LAT MLC_LON MLC_CLASS MLC_WIND MLC_PRES USA_GUST BOM_GUST BOM_GUST_PER REUNION_GUST REUNION_GUST_PER USA_SEAHGT USA_SEARAD_NE USA_SEARAD_SE USA_SEARAD_SW USA_SEARAD_NW STORM_SPEED STORM_DIR
1855236N12304 1855 10 NA NA NOT_NAMED 1855-08-24 00:00:00 TS 11.6000 -55.8333 50 hurdat_atl main 534 502 O____________O hurdat_atl AL041855 12.0000 -55.9000 TS 50 0 10.8000 -55.7000 TS 35 11 282
1855236N12304 1855 10 NA NA NOT_NAMED 1855-08-24 03:00:00 TS 11.7119 -56.3833 main 502 464 P____________P AL041855 11.9928 -56.5000 TS 50 0 11.1501 -56.1498 TS 37 11 282
1855236N12304 1855 10 NA NA NOT_NAMED 1855-08-24 06:00:00 TS 11.8333 -56.9333 50 hurdat_atl main 464 408 O____________O hurdat_atl AL041855 12.0000 -57.1000 TS 50 0 11.5000 -56.6000 TS 40 11 284
1855236N12304 1855 10 NA NA NOT_NAMED 1855-08-24 09:00:00 TS 11.9732 -57.4834 main 408 362 P____________P AL041855 12.0349 -57.7000 TS 50 0 11.8499 -57.0501 TS 42 11 286
1855236N12304 1855 10 NA NA NOT_NAMED 1855-08-24 12:00:00 TS 12.1333 -58.0333 50 hurdat_atl main 362 317 O____________O hurdat_atl AL041855 12.1000 -58.3000 TS 50 0 12.2000 -57.5000 TS 45 11 287
1855236N12304 1855 10 NA NA NOT_NAMED 1855-08-24 15:00:00 TS 12.2966 -58.5835 main 317 289 P____________P AL041855 12.1699 -58.9002 TS 50 0 12.5499 -57.9501 TS 47 11 289
1855236N12304 1855 10 NA NA NOT_NAMED 1855-08-24 18:00:00 TS 12.5000 -59.1333 50 hurdat_atl main 289 265 O____________O hurdat_atl AL041855 12.3000 -59.5000 TS 50 0 12.9000 -58.4000 TS 50 12 293
1855236N12304 1855 10 NA CS NOT_NAMED 1855-08-24 21:00:00 TS 12.7582 -59.6834 main 274 269 P____________P AL041855 12.5124 -60.1001 TS 55 0 13.2499 -58.8501 TS 55 12 298
1855236N12304 1855 10 NA CS NOT_NAMED 1855-08-25 00:00:00 TS 13.0667 -60.2333 60 hurdat_atl main 282 276 O____________O hurdat_atl AL041855 12.8000 -60.7000 TS 60 0 13.6000 -59.3000 TS 60 13 301
1855236N12304 1855 10 NA CS NOT_NAMED 1855-08-25 03:00:00 TS 13.4092 -60.8083 main 303 302 P____________P AL041855 13.1425 -61.3224 TS 60 0 13.9426 -59.7800 TS 60 13 303
1855236N12304 1855 10 NA CS NOT_NAMED 1855-08-25 06:00:00 TS 13.7667 -61.3333 60 hurdat_atl main 347 347 O____________O hurdat_atl AL041855 13.5000 -61.9000 TS 60 0 14.3000 -60.2000 TS 60 11 307
1855236N12304 1855 10 NA CS NOT_NAMED 1855-08-25 09:00:00 TS 14.0848 -61.7321 main 380 380 P____________P AL041855 13.7998 -62.3728 TS 60 0 14.6547 -60.4506 TS 65 10 312
1855236N12304 1855 10 NA CS NOT_NAMED 1855-08-25 12:00:00 TS 14.4333 -62.1000 60 hurdat_atl main 414 414 O____________O hurdat_atl AL041855 14.1000 -62.8000 TS 60 0 15.1000 -60.7000 HU 70 11 315
1855236N12304 1855 10 NA CS NOT_NAMED 1855-08-25 15:00:00 TS 14.8783 -62.5375 main 470 424 P____________P AL041855 14.4350 -63.2651 TS 60 0 15.7648 -61.0822 HU 72 13 316
1855236N12304 1855 10 NA CS NOT_NAMED 1855-08-25 18:00:00 TS 15.3333 -63.0000 60 hurdat_atl main 424 362 O____________O hurdat_atl AL041855 14.8000 -63.7000 TS 60 0 16.4000 -61.6000 HU 75 12 314
1855236N12304 1855 10 NA CS NOT_NAMED 1855-08-25 21:00:00 TS 15.7223 -63.4469 main 362 301 P____________P AL041855 15.1923 -64.0428 TS 60 0 16.7825 -62.2551 HU 80 12 309
1855236N12304 1855 10 NA CS NOT_NAMED 1855-08-26 00:00:00 TS 16.0667 -63.9333 60 hurdat_atl main 293 226 O____________O hurdat_atl AL041855 15.6000 -64.4000 TS 60 0 17.0000 -63.0000 HU 85 12 303
1855236N12304 1855 10 NA CS NOT_NAMED 1855-08-26 03:00:00 TS 16.3766 -64.4944 main 226 163 P____________P AL041855 16.0075 -64.8701 TS 60 0 17.1148 -63.7431 HU 87 13 298
1855236N12304 1855 10 NA CS NOT_NAMED 1855-08-26 06:00:00 TS 16.6667 -65.1000 60 hurdat_atl main 163 112 O____________O hurdat_atl AL041855 16.4000 -65.4000 TS 60 0 17.2000 -64.5000 HU 90 13 297
1855236N12304 1855 10 NA CS NOT_NAMED 1855-08-26 09:00:00 TS 16.9764 -65.6968 main 112 67 P____________P AL041855 16.7647 -65.9203 TS 60 0 17.3997 -65.2498 HU 92 13 297
1855236N12304 1855 10 NA CS NOT_NAMED 1855-08-26 12:00:00 TS 17.2667 -66.3333 60 hurdat_atl main 67 44 O____________O hurdat_atl AL041855 17.1000 -66.5000 TS 60 0 17.6000 -66.0000 HU 95 14 292
1855236N12304 1855 10 NA CS NOT_NAMED 1855-08-26 15:00:00 TS 17.4998 -67.0254 main 45 33 P____________P AL041855 17.3998 -67.1629 TS 60 0 17.6997 -66.7505 HU 97 14 289
1855236N12304 1855 10 NA CS NOT_NAMED 1855-08-26 18:00:00 TS 17.7333 -67.7667 60 hurdat_atl main 67 24 O____________O hurdat_atl AL041855 17.7000 -67.9000 TS 60 0 17.8000 -67.5000 MH 100 15 290
1855236N12304 1855 10 NA CS NOT_NAMED 1855-08-26 21:00:00 TS 18.0157 -68.5427 main 24 10 P____________P AL041855 18.0349 -68.6853 TS 55 0 17.9773 -68.2575 MH 100 16 292
1855236N12304 1855 10 NA CS NOT_NAMED 1855-08-27 00:00:00 TS 18.3333 -69.3333 50 997 hurdat_atl main 22 0 O____________O hurdat_atl AL041855 18.4000 -69.5000 TS 50 997 0 18.2000 -69.0000 MH 100 17 294
1855236N12304 1855 10 NA NA NOT_NAMED 1855-08-27 03:00:00 TS 18.7033 -70.1347 main 0 0 P____________P AL041855 18.8300 -70.3296 TS 50 0 18.4500 -69.7449 MH 87 16 296
1855236N12304 1855 10 NA NA NOT_NAMED 1855-08-27 06:00:00 TS 19.0333 -70.8667 50 hurdat_atl main 0 0 O____________O hurdat_atl AL041855 19.2000 -71.1000 TS 50 0 18.7000 -70.4000 HU 75 14 293
1855236N12304 1855 10 NA NA NOT_NAMED 1855-08-27 09:00:00 TS 19.2295 -71.4472 main 0 0 P____________P AL041855 19.3944 -71.7231 TS 45 0 18.8996 -70.8953 HU 60 10 287
1855236N12304 1855 10 NA NA NOT_NAMED 1855-08-27 12:00:00 TS 19.3400 -71.9000 40 hurdat_atl main 0 0 O____________O hurdat_atl AL041855 19.5000 -72.3000 TS 40 0 19.1000 -71.3000 TS 45 9 286
1855236N12304 1855 10 NA NA NOT_NAMED 1855-08-27 15:00:00 TS 19.4703 -72.3149 main 0 0 P____________P AL041855 19.5982 -72.9296 TS 40 0 19.3423 -71.7001 TS 42 7 294
1855236N12304 1855 10 NA NA NOT_NAMED 1855-08-27 18:00:00 TS 19.6333 -72.6000 40 hurdat_atl main 0 0 O____________O hurdat_atl AL041855 19.7000 -73.6000 TS 40 0 19.6000 -72.1000 TS 40 4 331
1855236N12304 1855 10 NA NA NOT_NAMED 1855-08-27 21:00:00 TS 19.8348 -72.5278 main 0 0 _____________P AL041855 TS -1 19.8348 -72.5278 TS 40 6 321
1855236N12304 1855 10 NA NA NOT_NAMED 1855-08-28 00:00:00 TS 20.1000 -73.0000 main 22 22 _____________O 20.1000 -73.0000 TS 40 11 303
1855236N12304 1855 10 NA NA NOT_NAMED 1855-08-28 03:00:00 TS 20.4425 -73.5349 main 56 35 _____________P 20.4425 -73.5349 TS 42 12 304
1855236N12304 1855 10 NA NA NOT_NAMED 1855-08-28 06:00:00 TS 20.8000 -74.1000 main 47 45 _____________O 20.8000 -74.1000 TS 45 13 302
1855236N12304 1855 10 NA NA NOT_NAMED 1855-08-28 09:00:00 TS 21.1075 -74.6652 main 55 55 _____________P 21.1075 -74.6652 TS 45 12 300
1855236N12304 1855 10 NA NA NOT_NAMED 1855-08-28 12:00:00 TS 21.4000 -75.2000 main 60 54 _____________O 21.4000 -75.2000 TS 45 11 303
1855236N12304 1855 10 NA NA NOT_NAMED 1855-08-28 15:00:00 TS 21.7072 -75.6577 main 73 73 _____________P 21.7072 -75.6577 TS 47 10 306
1855236N12304 1855 10 NA NA NOT_NAMED 1855-08-28 18:00:00 TS 22.0000 -76.1000 main 90 83 _____________O 22.0000 -76.1000 TS 50 10 303
1855236N12304 1855 10 NA NA NOT_NAMED 1855-08-28 21:00:00 TS 22.2648 -76.5777 main 84 78 _____________P 22.2648 -76.5777 TS 50 11 298
1855236N12304 1855 10 NA NA NOT_NAMED 1855-08-29 00:00:00 TS 22.5000 -77.1000 main 89 84 _____________O 22.5000 -77.1000 TS 50 11 293
1855236N12304 1855 10 NA NA NOT_NAMED 1855-08-29 03:00:00 TS 22.7074 -77.6852 main 84 63 _____________P 22.7074 -77.6852 TS 52 12 290
1855236N12304 1855 10 NA NA NOT_NAMED 1855-08-29 06:00:00 TS 22.9000 -78.3000 main 67 67 _____________O 22.9000 -78.3000 TS 55 12 288
1855236N12304 1855 10 NA NA NOT_NAMED 1855-08-29 09:00:00 TS 23.0698 -78.9006 main 83 59 _____________P 23.0698 -78.9006 TS 55 12 290
1855236N12304 1855 10 NA NA NOT_NAMED 1855-08-29 12:00:00 TS 23.3000 -79.5000 main 67 59 _____________O 23.3000 -79.5000 TS 55 13 299
1855236N12304 1855 10 NA NA NOT_NAMED 1855-08-29 15:00:00 TS 23.6698 -80.1000 main 88 84 _____________P 23.6698 -80.1000 TS 55 14 306
1855236N12304 1855 10 NA NA NOT_NAMED 1855-08-29 18:00:00 TS 24.1000 -80.7000 main 111 67 _____________O 24.1000 -80.7000 TS 55 14 307
1855236N12304 1855 10 NA NA NOT_NAMED 1855-08-29 21:00:00 TS 24.5073 -81.3003 main 70 60 _____________P 24.5073 -81.3003 TS 55 14 306
1855236N12304 1855 10 NA GM NOT_NAMED 1855-08-30 00:00:00 TS 24.9000 -81.9000 main 78 78 _____________O 24.9000 -81.9000 TS 55 13 305
1855236N12304 1855 10 NA GM NOT_NAMED 1855-08-30 03:00:00 TS 25.2573 -82.5005 main 104 104 _____________P 25.2573 -82.5005 TS 55 13 303
1855236N12304 1855 10 NA GM NOT_NAMED 1855-08-30 06:00:00 TS 25.6000 -83.1000 main 141 141 _____________O 25.6000 -83.1000 TS 55 13 303
1855236N12304 1855 10 NA GM NOT_NAMED 1855-08-30 09:00:00 TS 25.9498 -83.7004 main 171 165 _____________P 25.9498 -83.7004 TS 55 13 303
1855236N12304 1855 10 NA GM NOT_NAMED 1855-08-30 12:00:00 TS 26.3000 -84.3000 main 202 202 _____________O 26.3000 -84.3000 TS 55 13 303
1855236N12304 1855 10 NA GM NOT_NAMED 1855-08-30 15:00:00 TS 26.6573 -84.9077 main 237 237 _____________P 26.6573 -84.9077 TS 55 13 303
1855236N12304 1855 10 NA GM NOT_NAMED 1855-08-30 18:00:00 TS 27.0000 -85.5000 main 275 274 _____________O 27.0000 -85.5000 TS 55 12 302
1855236N12304 1855 10 NA GM NOT_NAMED 1855-08-30 21:00:00 TS 27.2996 -86.0507 main 276 257 _____________P 27.2996 -86.0507 TS 55 11 302
1855236N12304 1855 10 NA GM NOT_NAMED 1855-08-31 00:00:00 TS 27.6000 -86.6000 main 261 220 _____________O 27.6000 -86.6000 TS 55 12 302
1855236N12304 1855 10 NA GM NOT_NAMED 1855-08-31 03:00:00 TS 27.9423 -87.1927 main 220 147 _____________P 27.9423 -87.1927 TS 55 13 303
1855236N12304 1855 10 NA GM NOT_NAMED 1855-08-31 06:00:00 TS 28.3000 -87.8000 main 147 80 _____________O 28.3000 -87.8000 TS 55 13 303
1855236N12304 1855 10 NA GM NOT_NAMED 1855-08-31 09:00:00 TS 28.6422 -88.4005 main 80 9 _____________P 28.6422 -88.4005 TS 55 13 304
1855236N12304 1855 10 NA GM NOT_NAMED 1855-08-31 12:00:00 TS 29.0000 -89.0000 main 9 0 _____________O 29.0000 -89.0000 TS 55 13 306
1855236N12304 1855 10 NA NA NOT_NAMED 1855-08-31 15:00:00 TS 29.3998 -89.6076 main 0 0 _____________P 29.3998 -89.6076 TS 55 13 307
1855236N12304 1855 10 NA NA NOT_NAMED 1855-08-31 18:00:00 TS 29.8000 -90.2000 main 0 0 _____________O 29.8000 -90.2000 TS 55 13 306
1855236N12304 1855 10 NA NA NOT_NAMED 1855-08-31 21:00:00 TS 30.1501 -90.7953 main 0 0 _____________P 30.1501 -90.7953 TS 50 12 306
1855236N12304 1855 10 NA NA NOT_NAMED 1855-09-01 00:00:00 TS 30.5000 -91.3000 main 0 0 _____________O 30.5000 -91.3000 TS 45 10 316
1855236N12304 1855 10 NA NA NOT_NAMED 1855-09-01 03:00:00 TS 30.8996 -91.6380 main 0 0 _____________P 30.8996 -91.6380 TS 37 10 327
1855236N12304 1855 10 NA NA NOT_NAMED 1855-09-01 06:00:00 TS 31.3000 -91.9000 main 0 0 _____________O 31.3000 -91.9000 TD 30 9 328
1855236N12304 1855 10 NA NA NOT_NAMED 1855-09-01 09:00:00 TS 31.6628 -92.1869 main 0 0 _____________P 31.6628 -92.1869 TD 30 9 324
1855236N12304 1855 10 NA NA NOT_NAMED 1855-09-01 12:00:00 TS 32.0000 -92.5000 main 0 _____________O 32.0000 -92.5000 TD 30 9 322

IBTrACS Databaseについて

本データベースは、米国NOAAが公開する1842年以降の世界の熱帯低気圧のベストトラックデータアーカイブInternational Best Track Archive for Climate Stewardship (IBTrACS)を、ウェブで閲覧しやすい形式に変換したものです。

最終更新日:2021-10-27